sensor_id;sensor_type;location;lat;lon;timestamp;P1;durP1;ratioP1;P2;durP2;ratioP2
51048;SDS011;37084;55.228;36.450;2023-07-24T00:00:56;4.90;;;2.78;;
51048;SDS011;37084;55.228;36.450;2023-07-24T00:03:58;6.00;;;3.50;;
51048;SDS011;37084;55.228;36.450;2023-07-24T00:06:59;5.75;;;3.05;;
51048;SDS011;37084;55.228;36.450;2023-07-24T00:10:01;6.05;;;3.90;;
51048;SDS011;37084;55.228;36.450;2023-07-24T00:13:07;5.80;;;3.10;;
51048;SDS011;37084;55.228;36.450;2023-07-24T00:16:08;4.75;;;3.03;;
51048;SDS011;37084;55.228;36.450;2023-07-24T00:19:10;5.75;;;3.65;;
51048;SDS011;37084;55.228;36.450;2023-07-24T00:22:11;4.45;;;3.00;;
51048;SDS011;37084;55.228;36.450;2023-07-24T00:25:12;5.10;;;3.05;;
51048;SDS011;37084;55.228;36.450;2023-07-24T00:28:14;4.50;;;3.55;;
51048;SDS011;37084;55.228;36.450;2023-07-24T00:31:15;5.28;;;3.05;;
51048;SDS011;37084;55.228;36.450;2023-07-24T00:34:18;5.50;;;3.63;;
51048;SDS011;37084;55.228;36.450;2023-07-24T00:37:20;5.70;;;3.70;;
51048;SDS011;37084;55.228;36.450;2023-07-24T00:40:21;4.95;;;3.17;;
51048;SDS011;37084;55.228;36.450;2023-07-24T00:43:22;6.80;;;3.38;;
51048;SDS011;37084;55.228;36.450;2023-07-24T00:46:24;5.68;;;3.63;;
51048;SDS011;37084;55.228;36.450;2023-07-24T00:49:25;5.72;;;3.42;;
51048;SDS011;37084;55.228;36.450;2023-07-24T00:52:26;5.78;;;3.45;;
51048;SDS011;37084;55.228;36.450;2023-07-24T00:55:27;5.55;;;3.60;;
51048;SDS011;37084;55.228;36.450;2023-07-24T00:58:29;4.50;;;2.95;;
51048;SDS011;37084;55.228;36.450;2023-07-24T01:01:31;6.18;;;3.75;;
51048;SDS011;37084;55.228;36.450;2023-07-24T01:04:33;5.45;;;3.85;;
51048;SDS011;37084;55.228;36.450;2023-07-24T01:07:34;6.65;;;3.67;;
51048;SDS011;37084;55.228;36.450;2023-07-24T01:10:37;5.13;;;3.70;;
51048;SDS011;37084;55.228;36.450;2023-07-24T01:13:40;6.18;;;3.38;;
51048;SDS011;37084;55.228;36.450;2023-07-24T01:16:45;6.75;;;3.63;;
51048;SDS011;37084;55.228;36.450;2023-07-24T01:19:49;6.15;;;3.80;;
51048;SDS011;37084;55.228;36.450;2023-07-24T01:26:14;4.85;;;3.13;;
51048;SDS011;37084;55.228;36.450;2023-07-24T01:29:15;6.15;;;3.30;;
51048;SDS011;37084;55.228;36.450;2023-07-24T01:32:18;7.43;;;3.65;;
51048;SDS011;37084;55.228;36.450;2023-07-24T01:35:19;6.65;;;3.75;;
51048;SDS011;37084;55.228;36.450;2023-07-24T01:38:21;7.28;;;4.32;;
51048;SDS011;37084;55.228;36.450;2023-07-24T01:41:26;11.45;;;3.78;;
51048;SDS011;37084;55.228;36.450;2023-07-24T01:44:28;5.88;;;3.70;;
51048;SDS011;37084;55.228;36.450;2023-07-24T01:47:29;5.80;;;3.25;;
51048;SDS011;37084;55.228;36.450;2023-07-24T01:50:31;5.57;;;3.88;;
51048;SDS011;37084;55.228;36.450;2023-07-24T01:53:32;7.32;;;3.30;;
51048;SDS011;37084;55.228;36.450;2023-07-24T01:56:35;5.70;;;3.33;;
51048;SDS011;37084;55.228;36.450;2023-07-24T01:59:39;4.57;;;2.90;;
51048;SDS011;37084;55.228;36.450;2023-07-24T02:02:40;5.50;;;3.47;;
51048;SDS011;37084;55.228;36.450;2023-07-24T02:05:42;5.57;;;3.38;;
51048;SDS011;37084;55.228;36.450;2023-07-24T02:08:43;5.95;;;3.42;;
51048;SDS011;37084;55.228;36.450;2023-07-24T02:11:49;5.63;;;3.40;;
51048;SDS011;37084;55.228;36.450;2023-07-24T02:14:50;5.50;;;3.90;;
51048;SDS011;37084;55.228;36.450;2023-07-24T02:17:53;5.65;;;3.35;;
51048;SDS011;37084;55.228;36.450;2023-07-24T02:20:55;7.18;;;3.92;;
51048;SDS011;37084;55.228;36.450;2023-07-24T02:23:56;7.00;;;3.63;;
51048;SDS011;37084;55.228;36.450;2023-07-24T02:26:57;6.50;;;4.55;;
51048;SDS011;37084;55.228;36.450;2023-07-24T02:29:58;5.35;;;3.50;;
51048;SDS011;37084;55.228;36.450;2023-07-24T02:33:00;5.22;;;3.33;;
51048;SDS011;37084;55.228;36.450;2023-07-24T02:36:01;6.40;;;3.67;;
51048;SDS011;37084;55.228;36.450;2023-07-24T02:39:03;6.15;;;3.28;;
51048;SDS011;37084;55.228;36.450;2023-07-24T02:42:04;5.93;;;3.10;;
51048;SDS011;37084;55.228;36.450;2023-07-24T02:45:06;4.25;;;3.10;;
51048;SDS011;37084;55.228;36.450;2023-07-24T02:48:11;4.40;;;2.92;;
51048;SDS011;37084;55.228;36.450;2023-07-24T02:51:12;5.80;;;3.72;;
51048;SDS011;37084;55.228;36.450;2023-07-24T02:54:13;4.63;;;3.15;;
51048;SDS011;37084;55.228;36.450;2023-07-24T02:57:15;4.50;;;2.83;;
51048;SDS011;37084;55.228;36.450;2023-07-24T03:00:16;4.70;;;3.40;;
51048;SDS011;37084;55.228;36.450;2023-07-24T03:03:17;7.15;;;3.17;;
51048;SDS011;37084;55.228;36.450;2023-07-24T03:06:18;4.47;;;2.83;;
51048;SDS011;37084;55.228;36.450;2023-07-24T03:09:21;4.53;;;3.05;;
51048;SDS011;37084;55.228;36.450;2023-07-24T03:12:22;3.25;;;2.70;;
51048;SDS011;37084;55.228;36.450;2023-07-24T03:15:23;4.43;;;2.83;;
51048;SDS011;37084;55.228;36.450;2023-07-24T03:18:25;5.25;;;3.08;;
51048;SDS011;37084;55.228;36.450;2023-07-24T03:21:26;3.97;;;2.95;;
51048;SDS011;37084;55.228;36.450;2023-07-24T03:24:28;3.72;;;2.42;;
51048;SDS011;37084;55.228;36.450;2023-07-24T03:27:29;3.95;;;2.78;;
51048;SDS011;37084;55.228;36.450;2023-07-24T03:30:31;3.88;;;2.53;;
51048;SDS011;37084;55.228;36.450;2023-07-24T03:33:33;2.97;;;2.20;;
51048;SDS011;37084;55.228;36.450;2023-07-24T03:36:34;3.80;;;2.63;;
51048;SDS011;37084;55.228;36.450;2023-07-24T03:39:36;3.00;;;2.50;;
51048;SDS011;37084;55.228;36.450;2023-07-24T03:42:37;4.35;;;2.55;;
51048;SDS011;37084;55.228;36.450;2023-07-24T03:45:40;4.68;;;2.28;;
51048;SDS011;37084;55.228;36.450;2023-07-24T03:48:43;3.20;;;2.60;;
51048;SDS011;37084;55.228;36.450;2023-07-24T03:51:45;7.63;;;2.63;;
51048;SDS011;37084;55.228;36.450;2023-07-24T03:54:46;4.50;;;2.60;;
51048;SDS011;37084;55.228;36.450;2023-07-24T03:57:47;4.43;;;2.25;;
51048;SDS011;37084;55.228;36.450;2023-07-24T04:00:49;5.47;;;2.05;;
51048;SDS011;37084;55.228;36.450;2023-07-24T04:03:50;5.03;;;2.30;;
51048;SDS011;37084;55.228;36.450;2023-07-24T04:06:52;2.42;;;1.80;;
51048;SDS011;37084;55.228;36.450;2023-07-24T04:09:54;2.50;;;2.13;;
51048;SDS011;37084;55.228;36.450;2023-07-24T04:12:55;4.40;;;2.38;;
51048;SDS011;37084;55.228;36.450;2023-07-24T04:15:57;2.55;;;2.03;;
51048;SDS011;37084;55.228;36.450;2023-07-24T04:19:00;4.72;;;2.50;;
51048;SDS011;37084;55.228;36.450;2023-07-24T04:22:01;5.45;;;2.33;;
51048;SDS011;37084;55.228;36.450;2023-07-24T04:25:03;3.15;;;1.90;;
51048;SDS011;37084;55.228;36.450;2023-07-24T04:28:04;5.57;;;2.55;;
51048;SDS011;37084;55.228;36.450;2023-07-24T04:31:07;2.88;;;2.20;;
51048;SDS011;37084;55.228;36.450;2023-07-24T04:34:08;2.63;;;2.17;;
51048;SDS011;37084;55.228;36.450;2023-07-24T04:37:09;4.15;;;2.25;;
51048;SDS011;37084;55.228;36.450;2023-07-24T04:40:11;2.50;;;1.90;;
51048;SDS011;37084;55.228;36.450;2023-07-24T04:43:13;3.83;;;2.22;;
51048;SDS011;37084;55.228;36.450;2023-07-24T04:46:14;3.35;;;2.10;;
51048;SDS011;37084;55.228;36.450;2023-07-24T04:49:15;2.70;;;2.03;;
51048;SDS011;37084;55.228;36.450;2023-07-24T04:52:17;3.95;;;2.08;;
51048;SDS011;37084;55.228;36.450;2023-07-24T04:55:18;2.17;;;1.77;;
51048;SDS011;37084;55.228;36.450;2023-07-24T04:58:19;2.35;;;2.03;;
51048;SDS011;37084;55.228;36.450;2023-07-24T05:01:21;2.83;;;1.90;;
51048;SDS011;37084;55.228;36.450;2023-07-24T05:04:23;3.47;;;1.80;;
51048;SDS011;37084;55.228;36.450;2023-07-24T05:07:24;3.28;;;1.63;;
51048;SDS011;37084;55.228;36.450;2023-07-24T05:10:26;3.50;;;1.83;;
51048;SDS011;37084;55.228;36.450;2023-07-24T05:13:28;5.57;;;2.03;;
51048;SDS011;37084;55.228;36.450;2023-07-24T05:16:29;4.80;;;2.03;;
51048;SDS011;37084;55.228;36.450;2023-07-24T05:19:31;2.10;;;1.83;;
51048;SDS011;37084;55.228;36.450;2023-07-24T05:22:33;4.15;;;1.50;;
51048;SDS011;37084;55.228;36.450;2023-07-24T05:25:34;5.20;;;1.90;;
51048;SDS011;37084;55.228;36.450;2023-07-24T05:28:35;4.25;;;1.75;;
51048;SDS011;37084;55.228;36.450;2023-07-24T05:31:36;4.05;;;2.10;;
51048;SDS011;37084;55.228;36.450;2023-07-24T05:34:38;2.05;;;1.50;;
51048;SDS011;37084;55.228;36.450;2023-07-24T05:37:39;3.33;;;1.90;;
51048;SDS011;37084;55.228;36.450;2023-07-24T05:40:41;2.33;;;1.75;;
51048;SDS011;37084;55.228;36.450;2023-07-24T05:43:42;4.20;;;1.92;;
51048;SDS011;37084;55.228;36.450;2023-07-24T05:46:43;3.80;;;2.15;;
51048;SDS011;37084;55.228;36.450;2023-07-24T05:49:45;1.85;;;1.40;;
51048;SDS011;37084;55.228;36.450;2023-07-24T05:52:47;2.38;;;2.00;;
51048;SDS011;37084;55.228;36.450;2023-07-24T05:55:55;3.35;;;2.15;;
51048;SDS011;37084;55.228;36.450;2023-07-24T05:59:00;3.50;;;1.92;;
51048;SDS011;37084;55.228;36.450;2023-07-24T06:02:02;2.40;;;1.75;;
51048;SDS011;37084;55.228;36.450;2023-07-24T06:05:03;4.28;;;1.92;;
51048;SDS011;37084;55.228;36.450;2023-07-24T06:08:05;3.03;;;2.00;;
51048;SDS011;37084;55.228;36.450;2023-07-24T06:11:12;2.55;;;2.13;;
51048;SDS011;37084;55.228;36.450;2023-07-24T06:14:13;3.05;;;1.80;;
51048;SDS011;37084;55.228;36.450;2023-07-24T06:17:15;3.90;;;1.83;;
51048;SDS011;37084;55.228;36.450;2023-07-24T06:20:16;4.28;;;1.80;;
51048;SDS011;37084;55.228;36.450;2023-07-24T06:23:18;3.08;;;1.70;;
51048;SDS011;37084;55.228;36.450;2023-07-24T06:26:19;2.58;;;1.92;;
51048;SDS011;37084;55.228;36.450;2023-07-24T06:29:20;3.90;;;1.73;;
51048;SDS011;37084;55.228;36.450;2023-07-24T06:32:26;3.30;;;1.90;;
51048;SDS011;37084;55.228;36.450;2023-07-24T06:35:28;5.13;;;1.60;;
51048;SDS011;37084;55.228;36.450;2023-07-24T06:38:29;3.22;;;1.98;;
51048;SDS011;37084;55.228;36.450;2023-07-24T06:41:30;3.58;;;1.60;;
51048;SDS011;37084;55.228;36.450;2023-07-24T06:44:32;3.10;;;1.60;;
51048;SDS011;37084;55.228;36.450;2023-07-24T06:47:33;4.47;;;1.77;;
51048;SDS011;37084;55.228;36.450;2023-07-24T06:50:35;2.42;;;1.70;;
51048;SDS011;37084;55.228;36.450;2023-07-24T06:53:38;3.88;;;1.17;;
51048;SDS011;37084;55.228;36.450;2023-07-24T06:56:39;2.22;;;1.75;;
51048;SDS011;37084;55.228;36.450;2023-07-24T06:59:40;3.75;;;1.83;;
51048;SDS011;37084;55.228;36.450;2023-07-24T07:02:41;2.80;;;1.63;;
51048;SDS011;37084;55.228;36.450;2023-07-24T07:05:43;1.85;;;1.50;;
51048;SDS011;37084;55.228;36.450;2023-07-24T07:08:46;2.65;;;2.00;;
51048;SDS011;37084;55.228;36.450;2023-07-24T07:11:49;2.97;;;1.80;;
51048;SDS011;37084;55.228;36.450;2023-07-24T07:14:50;2.67;;;1.55;;
51048;SDS011;37084;55.228;36.450;2023-07-24T07:17:51;2.55;;;1.50;;
51048;SDS011;37084;55.228;36.450;2023-07-24T07:20:53;2.35;;;1.70;;
51048;SDS011;37084;55.228;36.450;2023-07-24T07:23:55;2.80;;;2.08;;
51048;SDS011;37084;55.228;36.450;2023-07-24T07:26:56;2.10;;;1.40;;
51048;SDS011;37084;55.228;36.450;2023-07-24T07:29:57;2.33;;;1.92;;
51048;SDS011;37084;55.228;36.450;2023-07-24T07:32:59;2.55;;;1.65;;
51048;SDS011;37084;55.228;36.450;2023-07-24T07:36:01;2.83;;;1.92;;
51048;SDS011;37084;55.228;36.450;2023-07-24T07:39:05;3.78;;;2.67;;
51048;SDS011;37084;55.228;36.450;2023-07-24T07:42:07;3.90;;;2.83;;
51048;SDS011;37084;55.228;36.450;2023-07-24T07:45:09;3.53;;;2.53;;
51048;SDS011;37084;55.228;36.450;2023-07-24T07:48:10;4.43;;;2.30;;
51048;SDS011;37084;55.228;36.450;2023-07-24T07:51:13;3.28;;;2.08;;
51048;SDS011;37084;55.228;36.450;2023-07-24T07:54:16;3.30;;;2.55;;
51048;SDS011;37084;55.228;36.450;2023-07-24T07:57:17;5.72;;;2.67;;
51048;SDS011;37084;55.228;36.450;2023-07-24T08:00:19;4.72;;;2.25;;
51048;SDS011;37084;55.228;36.450;2023-07-24T08:03:23;2.53;;;2.00;;
51048;SDS011;37084;55.228;36.450;2023-07-24T08:06:27;3.60;;;1.98;;
51048;SDS011;37084;55.228;36.450;2023-07-24T08:09:28;4.13;;;2.30;;
51048;SDS011;37084;55.228;36.450;2023-07-24T08:12:32;3.67;;;2.33;;
51048;SDS011;37084;55.228;36.450;2023-07-24T08:15:35;3.38;;;2.05;;
51048;SDS011;37084;55.228;36.450;2023-07-24T08:18:37;3.75;;;2.10;;
51048;SDS011;37084;55.228;36.450;2023-07-24T08:21:40;4.05;;;2.28;;
51048;SDS011;37084;55.228;36.450;2023-07-24T08:24:42;3.67;;;2.33;;
51048;SDS011;37084;55.228;36.450;2023-07-24T08:27:45;4.63;;;2.60;;
51048;SDS011;37084;55.228;36.450;2023-07-24T08:30:57;2.58;;;2.38;;
51048;SDS011;37084;55.228;36.450;2023-07-24T08:33:59;4.65;;;2.22;;
51048;SDS011;37084;55.228;36.450;2023-07-24T08:37:00;3.30;;;2.17;;
51048;SDS011;37084;55.228;36.450;2023-07-24T08:40:02;2.35;;;1.85;;
51048;SDS011;37084;55.228;36.450;2023-07-24T08:43:06;4.15;;;2.72;;
51048;SDS011;37084;55.228;36.450;2023-07-24T08:46:08;4.13;;;2.38;;
51048;SDS011;37084;55.228;36.450;2023-07-24T08:49:13;3.85;;;2.50;;
51048;SDS011;37084;55.228;36.450;2023-07-24T08:52:14;3.92;;;2.55;;
51048;SDS011;37084;55.228;36.450;2023-07-24T08:55:17;2.90;;;2.13;;
51048;SDS011;37084;55.228;36.450;2023-07-24T08:58:20;3.65;;;2.35;;
51048;SDS011;37084;55.228;36.450;2023-07-24T09:01:22;5.22;;;2.40;;
51048;SDS011;37084;55.228;36.450;2023-07-24T09:04:24;3.72;;;2.13;;
51048;SDS011;37084;55.228;36.450;2023-07-24T09:07:25;3.28;;;2.25;;
51048;SDS011;37084;55.228;36.450;2023-07-24T09:10:28;3.17;;;1.92;;
51048;SDS011;37084;55.228;36.450;2023-07-24T09:13:31;5.80;;;2.40;;
51048;SDS011;37084;55.228;36.450;2023-07-24T09:19:37;3.67;;;2.50;;
51048;SDS011;37084;55.228;36.450;2023-07-24T09:22:47;3.63;;;2.22;;
51048;SDS011;37084;55.228;36.450;2023-07-24T09:25:51;2.72;;;2.30;;
51048;SDS011;37084;55.228;36.450;2023-07-24T09:28:53;3.55;;;2.40;;
51048;SDS011;37084;55.228;36.450;2023-07-24T09:31:55;3.47;;;1.80;;
51048;SDS011;37084;55.228;36.450;2023-07-24T09:34:58;3.92;;;2.40;;
51048;SDS011;37084;55.228;36.450;2023-07-24T09:38:06;3.88;;;2.30;;
51048;SDS011;37084;55.228;36.450;2023-07-24T09:41:08;2.75;;;2.05;;
51048;SDS011;37084;55.228;36.450;2023-07-24T09:44:12;3.70;;;2.40;;
51048;SDS011;37084;55.228;36.450;2023-07-24T09:47:14;4.05;;;2.22;;
51048;SDS011;37084;55.228;36.450;2023-07-24T09:50:15;2.78;;;2.13;;
51048;SDS011;37084;55.228;36.450;2023-07-24T09:53:22;5.70;;;2.70;;
51048;SDS011;37084;55.228;36.450;2023-07-24T09:56:32;4.68;;;2.92;;
51048;SDS011;37084;55.228;36.450;2023-07-24T09:59:33;4.80;;;2.78;;
51048;SDS011;37084;55.228;36.450;2023-07-24T10:02:35;4.70;;;2.30;;
51048;SDS011;37084;55.228;36.450;2023-07-24T10:05:37;3.90;;;2.35;;
51048;SDS011;37084;55.228;36.450;2023-07-24T10:08:42;3.33;;;2.25;;
51048;SDS011;37084;55.228;36.450;2023-07-24T10:11:43;4.97;;;2.17;;
51048;SDS011;37084;55.228;36.450;2023-07-24T10:14:47;3.63;;;2.72;;
51048;SDS011;37084;55.228;36.450;2023-07-24T10:17:48;3.65;;;2.22;;
51048;SDS011;37084;55.228;36.450;2023-07-24T10:20:59;3.83;;;2.42;;
51048;SDS011;37084;55.228;36.450;2023-07-24T10:24:07;5.22;;;2.50;;
51048;SDS011;37084;55.228;36.450;2023-07-24T10:27:08;4.43;;;2.80;;
51048;SDS011;37084;55.228;36.450;2023-07-24T10:30:10;3.75;;;2.20;;
51048;SDS011;37084;55.228;36.450;2023-07-24T10:33:12;3.67;;;2.60;;
51048;SDS011;37084;55.228;36.450;2023-07-24T10:36:19;4.38;;;2.85;;
51048;SDS011;37084;55.228;36.450;2023-07-24T10:39:21;3.55;;;2.22;;
51048;SDS011;37084;55.228;36.450;2023-07-24T10:42:23;4.28;;;2.97;;
51048;SDS011;37084;55.228;36.450;2023-07-24T10:45:25;4.45;;;3.20;;
51048;SDS011;37084;55.228;36.450;2023-07-24T10:48:27;5.00;;;3.00;;
51048;SDS011;37084;55.228;36.450;2023-07-24T10:51:31;8.25;;;3.35;;
51048;SDS011;37084;55.228;36.450;2023-07-24T10:54:38;4.63;;;2.92;;
51048;SDS011;37084;55.228;36.450;2023-07-24T10:57:41;4.88;;;3.25;;
51048;SDS011;37084;55.228;36.450;2023-07-24T11:00:43;6.68;;;3.33;;
51048;SDS011;37084;55.228;36.450;2023-07-24T11:03:45;5.35;;;3.33;;
51048;SDS011;37084;55.228;36.450;2023-07-24T11:06:53;5.35;;;3.60;;
51048;SDS011;37084;55.228;36.450;2023-07-24T11:09:54;4.43;;;3.05;;
51048;SDS011;37084;55.228;36.450;2023-07-24T11:12:56;5.35;;;3.70;;
51048;SDS011;37084;55.228;36.450;2023-07-24T11:16:03;5.50;;;3.17;;
51048;SDS011;37084;55.228;36.450;2023-07-24T11:19:06;6.40;;;3.97;;
51048;SDS011;37084;55.228;36.450;2023-07-24T11:22:10;4.70;;;3.70;;
51048;SDS011;37084;55.228;36.450;2023-07-24T11:25:12;5.00;;;3.45;;
51048;SDS011;37084;55.228;36.450;2023-07-24T11:28:13;5.22;;;3.53;;
51048;SDS011;37084;55.228;36.450;2023-07-24T11:31:15;5.28;;;3.33;;
51048;SDS011;37084;55.228;36.450;2023-07-24T11:34:20;5.72;;;3.30;;
51048;SDS011;37084;55.228;36.450;2023-07-24T11:37:21;6.10;;;3.17;;
51048;SDS011;37084;55.228;36.450;2023-07-24T11:43:34;7.32;;;3.50;;
51048;SDS011;37084;55.228;36.450;2023-07-24T11:46:35;5.43;;;3.42;;
51048;SDS011;37084;55.228;36.450;2023-07-24T11:49:36;7.55;;;3.63;;
51048;SDS011;37084;55.228;36.450;2023-07-24T11:52:47;6.90;;;3.63;;
51048;SDS011;37084;55.228;36.450;2023-07-24T11:55:49;9.15;;;3.90;;
51048;SDS011;37084;55.228;36.450;2023-07-24T11:58:53;4.97;;;3.35;;
51048;SDS011;37084;55.228;36.450;2023-07-24T12:01:55;4.70;;;3.70;;
51048;SDS011;37084;55.228;36.450;2023-07-24T12:04:57;5.78;;;4.00;;
51048;SDS011;37084;55.228;36.450;2023-07-24T12:08:00;4.43;;;3.03;;
51048;SDS011;37084;55.228;36.450;2023-07-24T12:11:02;6.20;;;3.58;;
51048;SDS011;37084;55.228;36.450;2023-07-24T12:14:03;7.00;;;3.45;;
51048;SDS011;37084;55.228;36.450;2023-07-24T12:17:05;6.22;;;4.18;;
51048;SDS011;37084;55.228;36.450;2023-07-24T12:20:10;4.75;;;3.33;;
51048;SDS011;37084;55.228;36.450;2023-07-24T12:23:12;4.45;;;3.17;;
51048;SDS011;37084;55.228;36.450;2023-07-24T12:26:13;4.32;;;3.30;;
51048;SDS011;37084;55.228;36.450;2023-07-24T12:29:15;4.90;;;3.42;;
51048;SDS011;37084;55.228;36.450;2023-07-24T12:32:16;5.85;;;3.28;;
51048;SDS011;37084;55.228;36.450;2023-07-24T12:35:18;4.85;;;3.22;;
51048;SDS011;37084;55.228;36.450;2023-07-24T12:38:20;5.47;;;3.47;;
51048;SDS011;37084;55.228;36.450;2023-07-24T12:41:21;3.90;;;2.90;;
51048;SDS011;37084;55.228;36.450;2023-07-24T12:44:24;4.80;;;3.08;;
51048;SDS011;37084;55.228;36.450;2023-07-24T12:47:26;3.60;;;2.72;;
51048;SDS011;37084;55.228;36.450;2023-07-24T12:50:28;7.18;;;2.80;;
51048;SDS011;37084;55.228;36.450;2023-07-24T12:53:32;5.22;;;2.85;;
51048;SDS011;37084;55.228;36.450;2023-07-24T12:56:35;5.68;;;2.90;;
51048;SDS011;37084;55.228;36.450;2023-07-24T12:59:36;5.05;;;2.70;;
51048;SDS011;37084;55.228;36.450;2023-07-24T13:02:39;4.63;;;2.95;;
51048;SDS011;37084;55.228;36.450;2023-07-24T13:05:40;3.53;;;2.85;;
51048;SDS011;37084;55.228;36.450;2023-07-24T13:08:42;4.85;;;2.92;;
51048;SDS011;37084;55.228;36.450;2023-07-24T13:11:43;4.82;;;2.75;;
51048;SDS011;37084;55.228;36.450;2023-07-24T13:14:49;4.50;;;2.42;;
51048;SDS011;37084;55.228;36.450;2023-07-24T13:18:00;3.90;;;3.00;;
51048;SDS011;37084;55.228;36.450;2023-07-24T13:21:04;4.90;;;3.42;;
51048;SDS011;37084;55.228;36.450;2023-07-24T13:24:08;5.35;;;2.78;;
51048;SDS011;37084;55.228;36.450;2023-07-24T13:27:12;4.65;;;2.70;;
51048;SDS011;37084;55.228;36.450;2023-07-24T13:30:15;4.90;;;3.08;;
51048;SDS011;37084;55.228;36.450;2023-07-24T13:33:17;3.38;;;2.88;;
51048;SDS011;37084;55.228;36.450;2023-07-24T13:36:18;4.80;;;3.10;;
51048;SDS011;37084;55.228;36.450;2023-07-24T13:39:20;3.85;;;2.97;;
51048;SDS011;37084;55.228;36.450;2023-07-24T13:42:22;4.70;;;3.03;;
51048;SDS011;37084;55.228;36.450;2023-07-24T13:45:23;5.75;;;3.47;;
51048;SDS011;37084;55.228;36.450;2023-07-24T13:48:27;5.60;;;3.08;;
51048;SDS011;37084;55.228;36.450;2023-07-24T13:51:33;6.30;;;3.95;;
51048;SDS011;37084;55.228;36.450;2023-07-24T13:54:35;5.93;;;3.20;;
51048;SDS011;37084;55.228;36.450;2023-07-24T13:57:37;3.75;;;2.88;;
51048;SDS011;37084;55.228;36.450;2023-07-24T14:00:38;5.55;;;3.15;;
51048;SDS011;37084;55.228;36.450;2023-07-24T14:03:43;6.38;;;3.25;;
51048;SDS011;37084;55.228;36.450;2023-07-24T14:06:45;4.22;;;3.03;;
51048;SDS011;37084;55.228;36.450;2023-07-24T14:09:46;4.70;;;3.58;;
51048;SDS011;37084;55.228;36.450;2023-07-24T14:12:47;7.68;;;3.38;;
51048;SDS011;37084;55.228;36.450;2023-07-24T14:15:51;8.48;;;3.97;;
51048;SDS011;37084;55.228;36.450;2023-07-24T14:18:57;4.18;;;2.90;;
51048;SDS011;37084;55.228;36.450;2023-07-24T14:21:59;6.43;;;4.03;;
51048;SDS011;37084;55.228;36.450;2023-07-24T14:25:03;5.50;;;3.97;;
51048;SDS011;37084;55.228;36.450;2023-07-24T14:28:06;6.70;;;4.03;;
51048;SDS011;37084;55.228;36.450;2023-07-24T14:31:08;5.78;;;4.03;;
51048;SDS011;37084;55.228;36.450;2023-07-24T14:34:09;5.93;;;4.30;;
51048;SDS011;37084;55.228;36.450;2023-07-24T14:37:13;7.90;;;4.57;;
51048;SDS011;37084;55.228;36.450;2023-07-24T14:40:14;7.20;;;3.92;;
51048;SDS011;37084;55.228;36.450;2023-07-24T14:43:15;5.55;;;4.13;;
51048;SDS011;37084;55.228;36.450;2023-07-24T14:46:17;5.22;;;4.20;;
51048;SDS011;37084;55.228;36.450;2023-07-24T14:49:18;7.63;;;4.25;;
51048;SDS011;37084;55.228;36.450;2023-07-24T14:52:21;5.82;;;4.43;;
51048;SDS011;37084;55.228;36.450;2023-07-24T14:55:24;5.72;;;4.18;;
51048;SDS011;37084;55.228;36.450;2023-07-24T14:58:27;6.85;;;4.03;;
51048;SDS011;37084;55.228;36.450;2023-07-24T15:01:30;7.05;;;3.83;;
51048;SDS011;37084;55.228;36.450;2023-07-24T15:04:31;5.72;;;3.67;;
51048;SDS011;37084;55.228;36.450;2023-07-24T15:07:33;5.05;;;4.25;;
51048;SDS011;37084;55.228;36.450;2023-07-24T15:10:34;6.20;;;3.90;;
51048;SDS011;37084;55.228;36.450;2023-07-24T15:13:38;6.57;;;4.13;;
51048;SDS011;37084;55.228;36.450;2023-07-24T15:16:39;7.90;;;4.85;;
51048;SDS011;37084;55.228;36.450;2023-07-24T15:19:44;6.75;;;4.43;;
51048;SDS011;37084;55.228;36.450;2023-07-24T15:22:48;7.28;;;4.50;;
51048;SDS011;37084;55.228;36.450;2023-07-24T15:25:51;5.05;;;3.83;;
51048;SDS011;37084;55.228;36.450;2023-07-24T15:28:55;6.32;;;3.85;;
51048;SDS011;37084;55.228;36.450;2023-07-24T15:32:00;6.85;;;4.10;;
51048;SDS011;37084;55.228;36.450;2023-07-24T15:35:03;6.45;;;4.20;;
51048;SDS011;37084;55.228;36.450;2023-07-24T15:38:06;4.97;;;4.22;;
51048;SDS011;37084;55.228;36.450;2023-07-24T15:41:07;7.78;;;4.13;;
51048;SDS011;37084;55.228;36.450;2023-07-24T15:44:10;6.05;;;4.00;;
51048;SDS011;37084;55.228;36.450;2023-07-24T15:47:14;6.30;;;4.18;;
51048;SDS011;37084;55.228;36.450;2023-07-24T15:50:20;5.57;;;3.55;;
51048;SDS011;37084;55.228;36.450;2023-07-24T15:53:22;7.10;;;4.38;;
51048;SDS011;37084;55.228;36.450;2023-07-24T15:56:24;5.95;;;4.00;;
51048;SDS011;37084;55.228;36.450;2023-07-24T15:59:25;7.03;;;4.53;;
51048;SDS011;37084;55.228;36.450;2023-07-24T16:02:32;5.38;;;3.85;;
51048;SDS011;37084;55.228;36.450;2023-07-24T16:05:34;5.93;;;3.83;;
51048;SDS011;37084;55.228;36.450;2023-07-24T16:08:36;5.82;;;4.10;;
51048;SDS011;37084;55.228;36.450;2023-07-24T16:11:38;7.95;;;4.07;;
51048;SDS011;37084;55.228;36.450;2023-07-24T16:14:41;6.35;;;3.80;;
51048;SDS011;37084;55.228;36.450;2023-07-24T16:17:45;5.30;;;3.53;;
51048;SDS011;37084;55.228;36.450;2023-07-24T16:20:47;5.28;;;4.15;;
51048;SDS011;37084;55.228;36.450;2023-07-24T16:23:52;6.75;;;4.32;;
51048;SDS011;37084;55.228;36.450;2023-07-24T16:26:54;6.35;;;4.22;;
51048;SDS011;37084;55.228;36.450;2023-07-24T16:29:58;7.35;;;5.00;;
51048;SDS011;37084;55.228;36.450;2023-07-24T16:33:01;5.63;;;4.30;;
51048;SDS011;37084;55.228;36.450;2023-07-24T16:36:04;5.78;;;4.43;;
51048;SDS011;37084;55.228;36.450;2023-07-24T16:39:05;6.63;;;4.47;;
51048;SDS011;37084;55.228;36.450;2023-07-24T16:42:07;7.75;;;4.95;;
51048;SDS011;37084;55.228;36.450;2023-07-24T16:45:10;7.15;;;5.35;;
51048;SDS011;37084;55.228;36.450;2023-07-24T16:48:14;7.43;;;4.75;;
51048;SDS011;37084;55.228;36.450;2023-07-24T16:51:16;7.03;;;4.57;;
51048;SDS011;37084;55.228;36.450;2023-07-24T16:54:18;6.82;;;5.03;;
51048;SDS011;37084;55.228;36.450;2023-07-24T16:57:21;7.32;;;4.82;;
51048;SDS011;37084;55.228;36.450;2023-07-24T17:00:29;8.10;;;4.82;;
51048;SDS011;37084;55.228;36.450;2023-07-24T17:03:37;7.47;;;4.80;;
51048;SDS011;37084;55.228;36.450;2023-07-24T17:06:38;8.05;;;5.15;;
51048;SDS011;37084;55.228;36.450;2023-07-24T17:09:41;6.85;;;4.68;;
51048;SDS011;37084;55.228;36.450;2023-07-24T17:12:47;7.80;;;4.90;;
51048;SDS011;37084;55.228;36.450;2023-07-24T17:15:50;9.75;;;4.88;;
51048;SDS011;37084;55.228;36.450;2023-07-24T17:18:51;7.90;;;5.05;;
51048;SDS011;37084;55.228;36.450;2023-07-24T17:21:59;8.30;;;5.22;;
51048;SDS011;37084;55.228;36.450;2023-07-24T17:25:00;7.68;;;5.53;;
51048;SDS011;37084;55.228;36.450;2023-07-24T17:28:05;8.55;;;5.78;;
51048;SDS011;37084;55.228;36.450;2023-07-24T17:31:08;9.07;;;5.75;;
51048;SDS011;37084;55.228;36.450;2023-07-24T17:34:10;6.45;;;5.13;;
51048;SDS011;37084;55.228;36.450;2023-07-24T17:37:13;8.57;;;5.28;;
51048;SDS011;37084;55.228;36.450;2023-07-24T17:40:18;8.25;;;5.25;;
51048;SDS011;37084;55.228;36.450;2023-07-24T17:43:21;8.82;;;5.68;;
51048;SDS011;37084;55.228;36.450;2023-07-24T17:46:23;10.23;;;5.95;;
51048;SDS011;37084;55.228;36.450;2023-07-24T17:49:24;8.27;;;5.13;;
51048;SDS011;37084;55.228;36.450;2023-07-24T17:52:26;8.60;;;5.75;;
51048;SDS011;37084;55.228;36.450;2023-07-24T17:55:29;10.43;;;6.72;;
51048;SDS011;37084;55.228;36.450;2023-07-24T17:58:33;9.48;;;6.40;;
51048;SDS011;37084;55.228;36.450;2023-07-24T18:01:37;9.05;;;6.13;;
51048;SDS011;37084;55.228;36.450;2023-07-24T18:04:39;10.45;;;6.68;;
51048;SDS011;37084;55.228;36.450;2023-07-24T18:07:43;8.73;;;6.05;;
51048;SDS011;37084;55.228;36.450;2023-07-24T18:13:47;9.05;;;6.45;;